Time;durP1;ratioP1;P1;durP2;ratioP2;P2;SDS_P1;SDS_P2;PMS_P1;PMS_P2;Temp;Humidity;BMP_temperature;BMP_pressure;BME280_temperature;BME280_humidity;BME280_pressure;Samples;Min_cycle;Max_cycle;Signal;HPM_P1;HPM_P2
2021/06/13 00:01:27;;;;;;;7.60;3.38;;;18.60;99.20;;;;;;5031676;28;20033;-65
2021/06/13 00:03:53;;;;;;;8.93;3.40;;;18.60;99.30;;;;;;5033112;28;20183;-65
2021/06/13 00:06:19;;;;;;;11.38;3.30;;;18.50;99.40;;;;;;5031566;28;20500;-65
2021/06/13 00:08:45;;;;;;;10.60;3.50;;;18.50;99.40;;;;;;5031508;28;20041;-65
2021/06/13 00:11:12;;;;;;;9.80;2.90;;;18.40;99.50;;;;;;5032895;28;20033;-64
2021/06/13 00:13:38;;;;;;;7.78;3.47;;;18.40;99.60;;;;;;5032749;28;20038;-64
2021/06/13 00:16:06;;;;;;;16.88;5.57;;;18.30;99.70;;;;;;5032522;28;20033;-65
2021/06/13 00:18:33;;;;;;;4.85;2.55;;;18.30;99.70;;;;;;5032406;28;20060;-65
2021/06/13 00:20:58;;;;;;;9.38;2.85;;;18.40;99.60;;;;;;5032861;28;20030;-65
2021/06/13 00:23:24;;;;;;;10.73;3.40;;;18.30;99.50;;;;;;5031174;28;20048;-66
2021/06/13 00:25:50;;;;;;;9.52;2.95;;;18.30;99.60;;;;;;5031882;28;20034;-65
2021/06/13 00:28:16;;;;;;;7.60;3.30;;;18.30;99.40;;;;;;5032697;28;20018;-65
2021/06/13 00:30:43;;;;;;;6.15;2.65;;;18.30;99.50;;;;;;5032081;28;20107;-65
2021/06/13 00:33:09;;;;;;;6.97;3.33;;;18.20;99.40;;;;;;5031246;28;20052;-65
2021/06/13 00:35:37;;;;;;;5.95;2.78;;;18.10;99.60;;;;;;5032177;28;20113;-65
2021/06/13 00:38:05;;;;;;;8.45;2.95;;;18.10;99.60;;;;;;5030892;28;20083;-65
2021/06/13 00:40:32;;;;;;;7.50;2.63;;;18.00;99.80;;;;;;5030889;28;20038;-65
2021/06/13 00:42:59;;;;;;;6.05;2.60;;;18.00;99.70;;;;;;5032543;28;20030;-65
2021/06/13 00:45:25;;;;;;;6.65;2.60;;;18.00;99.70;;;;;;5032341;28;20040;-65
2021/06/13 00:47:51;;;;;;;6.40;2.70;;;18.00;99.70;;;;;;5032198;28;20030;-65
2021/06/13 00:50:31;;;;;;;6.05;2.33;;;17.90;99.80;;;;;;5032089;28;20033;-65
2021/06/13 00:52:59;;;;;;;7.18;3.20;;;17.90;99.80;;;;;;5032556;28;20030;-64
2021/06/13 00:55:26;;;;;;;8.00;3.38;;;17.90;99.60;;;;;;5030690;28;20046;-65
2021/06/13 00:57:52;;;;;;;8.30;3.10;;;18.00;99.70;;;;;;5030861;28;20044;-66
2021/06/13 01:00:19;;;;;;;8.00;2.60;;;17.90;99.90;;;;;;5032393;28;20053;-65
2021/06/13 01:02:45;;;;;;;4.60;2.60;;;17.90;99.80;;;;;;5030725;28;20038;-65
2021/06/13 01:05:12;;;;;;;6.13;2.55;;;17.90;99.70;;;;;;5032185;28;20469;-65
2021/06/13 01:08:26;;;;;;;4.88;2.28;;;17.90;99.70;;;;;;5030649;28;20029;-65
2021/06/13 01:10:59;;;;;;;11.13;2.65;;;17.90;99.70;;;;;;5032134;28;20080;-65
2021/06/13 01:13:39;;;;;;;8.82;2.55;;;17.80;99.80;;;;;;5030914;28;20108;-64
2021/06/13 01:16:40;;;;;;;4.80;2.13;;;17.80;99.70;;;;;;5031136;28;20037;-65
2021/06/13 01:19:43;;;;;;;7.20;2.17;;;17.70;99.80;;;;;;5025991;28;20049;-64
2021/06/13 01:22:24;;;;;;;6.88;2.13;;;17.80;99.70;;;;;;5030941;28;20396;-64
2021/06/13 01:25:06;;;;;;;;;;;17.70;99.70;;;;;;5032696;28;20574;-64
2021/06/13 01:28:12;;;;;;;6.72;2.00;;;17.60;99.80;;;;;;5031729;28;19913;-64
2021/06/13 01:30:38;;;;;;;4.25;2.08;;;17.60;99.80;;;;;;5031546;28;20128;-64
2021/06/13 01:33:11;;;;;;;5.75;2.70;;;17.50;99.90;;;;;;5031826;28;20025;-64
2021/06/13 01:35:39;;;;;;;7.10;3.00;;;17.50;99.90;;;;;;5030282;28;20029;-64
2021/06/13 01:38:08;;;;;;;10.57;3.17;;;17.50;99.90;;;;;;5033769;28;20064;-64
2021/06/13 01:40:36;;;;;;;5.57;2.70;;;17.50;99.90;;;;;;5018140;28;20030;-64
2021/06/13 01:43:05;;;;;;;7.13;2.40;;;17.40;99.90;;;;;;5034217;28;20175;-64
2021/06/13 01:45:38;;;;;;;6.40;2.53;;;17.40;99.90;;;;;;5034134;28;20434;-64
2021/06/13 01:48:08;;;;;;;6.93;2.10;;;17.30;99.90;;;;;;5034270;28;20187;-64
2021/06/13 01:50:34;;;;;;;6.20;2.25;;;17.30;99.90;;;;;;5035284;28;20032;-64
2021/06/13 01:53:11;;;;;;;7.00;2.40;;;17.30;99.90;;;;;;5034368;28;20040;-64
2021/06/13 01:55:38;;;;;;;11.60;3.08;;;17.30;99.90;;;;;;5018019;28;20035;-64
2021/06/13 01:58:06;;;;;;;5.60;2.40;;;17.30;99.90;;;;;;5034277;28;20104;-64
2021/06/13 02:00:36;;;;;;;6.07;2.83;;;17.30;99.90;;;;;;5035025;28;20033;-64
2021/06/13 02:03:03;;;;;;;6.88;2.35;;;17.20;99.90;;;;;;5034447;28;20112;-64
2021/06/13 02:05:30;;;;;;;9.55;2.55;;;17.10;99.90;;;;;;5033781;28;20385;-64
2021/06/13 02:07:58;;;;;;;6.25;2.50;;;17.00;99.90;;;;;;5033784;28;20021;-64
2021/06/13 02:10:26;;;;;;;8.82;2.97;;;16.90;99.90;;;;;;5034954;28;20068;-64
2021/06/13 02:12:53;;;;;;;6.85;2.58;;;17.00;99.90;;;;;;5033726;28;20363;-64
2021/06/13 02:15:24;;;;;;;9.88;2.90;;;16.90;99.90;;;;;;5033635;28;20042;-65
2021/06/13 02:17:52;;;;;;;10.35;2.63;;;16.90;99.90;;;;;;5033617;28;20523;-64
2021/06/13 02:20:23;;;;;;;7.20;2.53;;;16.80;99.90;;;;;;5034775;28;20158;-64
2021/06/13 02:22:50;;;;;;;;;;;16.70;99.90;;;;;;5035386;28;20083;-64
2021/06/13 02:25:20;;;;;;;9.73;2.63;;;16.60;99.90;;;;;;5050189;28;19913;-65
2021/06/13 02:27:48;;;;;;;4.40;2.33;;;16.50;99.90;;;;;;5034533;28;20048;-65
2021/06/13 02:30:18;;;;;;;6.55;2.40;;;16.40;99.90;;;;;;5033316;28;20069;-65
2021/06/13 02:32:47;;;;;;;11.02;3.28;;;16.40;99.90;;;;;;5033653;28;20386;-64
2021/06/13 02:35:16;;;;;;;8.55;2.88;;;16.30;99.90;;;;;;5033302;28;20120;-65
2021/06/13 02:37:44;;;;;;;5.35;2.35;;;16.20;99.90;;;;;;5033191;28;20502;-64
2021/06/13 02:40:13;;;;;;;7.82;2.88;;;16.10;99.90;;;;;;5033590;28;20034;-65
2021/06/13 02:42:39;;;;;;;6.47;2.80;;;16.00;99.90;;;;;;5034404;28;20486;-65
2021/06/13 02:45:15;;;;;;;8.10;3.38;;;15.80;99.90;;;;;;5034327;28;20044;-65
2021/06/13 02:47:41;;;;;;;5.72;3.15;;;15.70;99.90;;;;;;5034394;28;20171;-65
2021/06/13 02:50:09;;;;;;;7.50;2.75;;;15.70;99.90;;;;;;5033901;28;20523;-65
2021/06/13 02:52:55;;;;;;;9.40;3.72;;;15.60;99.90;;;;;;5033099;28;20031;-65
2021/06/13 02:55:34;;;;;;;6.88;3.72;;;15.50;99.90;;;;;;5033248;28;20033;-65
2021/06/13 02:58:19;;;;;;;9.43;3.20;;;15.50;99.90;;;;;;5033267;28;20026;-65
2021/06/13 03:00:47;;;;;;;7.65;3.00;;;15.40;99.90;;;;;;5033124;28;20037;-65
2021/06/13 03:03:18;;;;;;;5.72;2.47;;;15.30;99.90;;;;;;5032938;28;20037;-65
2021/06/13 03:05:44;;;;;;;;;;;15.30;99.90;;;;;;5033253;28;20048;-65
2021/06/13 03:08:11;;;;;;;9.20;3.10;;;15.30;99.90;;;;;;5032456;28;19913;-65
2021/06/13 03:10:37;;;;;;;7.30;3.45;;;15.40;99.90;;;;;;5032391;28;20033;-65
2021/06/13 03:13:04;;;;;;;8.43;3.65;;;15.50;99.90;;;;;;5032712;28;20029;-65
2021/06/13 03:15:31;;;;;;;6.40;3.30;;;15.50;99.90;;;;;;5032402;28;20036;-65
2021/06/13 03:18:01;;;;;;;6.95;2.90;;;15.50;99.90;;;;;;5033820;28;20093;-65
2021/06/13 03:20:28;;;;;;;4.82;2.63;;;15.50;99.90;;;;;;5032422;28;20041;-65
2021/06/13 03:22:56;;;;;;;7.35;2.97;;;15.50;99.90;;;;;;5032455;28;20104;-65
2021/06/13 03:25:24;;;;;;;7.18;3.28;;;15.40;99.90;;;;;;5032443;28;20049;-65
2021/06/13 03:27:51;;;;;;;4.95;2.88;;;15.40;99.90;;;;;;5032418;28;20035;-65
2021/06/13 03:30:19;;;;;;;6.38;3.58;;;15.40;99.90;;;;;;5031873;28;20137;-65
2021/06/13 03:32:45;;;;;;;7.65;2.63;;;15.20;99.90;;;;;;5032087;28;20164;-64
2021/06/13 03:35:11;;;;;;;7.72;2.72;;;15.30;99.90;;;;;;5033268;28;20044;-65
2021/06/13 03:37:39;;;;;;;6.05;3.58;;;15.30;99.90;;;;;;5031909;28;20032;-64
2021/06/13 03:40:07;;;;;;;5.78;2.78;;;15.20;99.90;;;;;;5032329;28;20076;-65
2021/06/13 03:42:34;;;;;;;11.77;3.42;;;15.20;99.90;;;;;;5033324;28;20095;-65
2021/06/13 03:45:00;;;;;;;11.43;3.25;;;15.20;99.90;;;;;;5031971;28;20063;-65
2021/06/13 03:47:30;;;;;;;8.65;3.17;;;15.10;99.90;;;;;;5033006;28;20393;-65
2021/06/13 03:49:57;;;;;;;6.07;2.88;;;15.00;99.90;;;;;;5032911;28;20504;-65
2021/06/13 03:52:22;;;;;;;7.82;3.00;;;15.00;99.90;;;;;;5031815;28;20044;-65
2021/06/13 03:54:49;;;;;;;6.20;3.03;;;15.00;99.90;;;;;;5031526;28;20470;-65
2021/06/13 03:57:17;;;;;;;8.80;2.70;;;15.00;99.90;;;;;;5031682;28;20034;-65
2021/06/13 03:59:45;;;;;;;6.90;3.10;;;15.00;99.90;;;;;;5031590;28;20048;-65
2021/06/13 04:02:12;;;;;;;7.43;3.47;;;15.00;99.90;;;;;;5031555;28;20112;-65
2021/06/13 04:04:47;;;;;;;8.73;2.90;;;15.00;99.90;;;;;;5031501;28;20033;-65
2021/06/13 04:07:15;;;;;;;7.43;3.42;;;15.10;99.90;;;;;;5031899;28;20055;-65
2021/06/13 04:09:42;;;;;;;6.25;3.00;;;15.20;99.90;;;;;;5031260;28;20030;-65
2021/06/13 04:12:13;;;;;;;7.32;2.97;;;15.40;99.90;;;;;;5031754;28;20034;-65
2021/06/13 04:14:39;;;;;;;6.05;2.83;;;15.50;99.90;;;;;;5031401;28;20041;-65
2021/06/13 04:17:05;;;;;;;6.68;2.50;;;15.50;99.90;;;;;;5032784;28;20103;-65
2021/06/13 04:19:32;;;;;;;8.57;3.00;;;15.60;99.90;;;;;;5032653;28;20041;-65
2021/06/13 04:21:59;;;;;;;7.35;2.83;;;15.60;99.90;;;;;;5031453;28;20501;-65
2021/06/13 04:24:25;;;;;;;5.38;2.50;;;15.60;99.90;;;;;;5031364;28;20117;-65
2021/06/13 04:26:54;;;;;;;8.23;2.72;;;15.60;99.90;;;;;;5031247;28;20144;-65
2021/06/13 04:29:20;;;;;;;10.75;3.53;;;15.60;99.90;;;;;;5032250;28;20628;-65
2021/06/13 04:31:46;;;;;;;7.53;3.10;;;15.70;99.90;;;;;;5032540;28;20039;-64
2021/06/13 04:34:12;;;;;;;7.95;2.97;;;15.80;99.90;;;;;;5031372;28;20040;-65
2021/06/13 04:36:38;;;;;;;4.88;2.65;;;15.90;99.90;;;;;;5031034;28;20038;-65
2021/06/13 04:39:04;;;;;;;5.80;2.80;;;15.80;99.90;;;;;;5032377;28;20029;-65
2021/06/13 04:41:34;;;;;;;9.27;3.08;;;15.90;99.90;;;;;;5031440;28;20040;-65
2021/06/13 04:44:00;;;;;;;9.77;3.10;;;15.80;99.90;;;;;;5032397;28;20037;-65
2021/06/13 04:46:28;;;;;;;10.32;2.97;;;15.70;99.90;;;;;;5032215;28;20497;-65
2021/06/13 04:48:56;;;;;;;7.53;2.65;;;15.60;99.90;;;;;;5031125;28;20120;-65
2021/06/13 04:51:26;;;;;;;7.97;2.92;;;15.60;99.90;;;;;;5032529;28;20033;-65
2021/06/13 04:54:10;;;;;;;6.53;2.97;;;15.50;99.90;;;;;;5032339;28;20038;-65
2021/06/13 04:57:24;;;;;;;6.30;3.55;;;15.40;99.90;;;;;;5031168;28;20029;-64
2021/06/13 04:59:50;;;;;;;6.75;3.33;;;15.50;99.90;;;;;;5030911;28;20037;-65
2021/06/13 05:02:16;;;;;;;8.38;2.75;;;15.70;99.90;;;;;;5031058;28;20543;-64
2021/06/13 05:04:42;;;;;;;7.82;3.17;;;15.80;99.90;;;;;;5030754;28;20034;-65
2021/06/13 05:07:08;;;;;;;10.20;2.83;;;15.70;99.90;;;;;;5032012;28;20501;-65
2021/06/13 05:09:34;;;;;;;8.75;3.08;;;15.80;99.90;;;;;;5031005;28;20041;-64
2021/06/13 05:12:00;;;;;;;6.63;3.20;;;15.90;99.90;;;;;;5032186;28;20041;-65
2021/06/13 05:14:26;;;;;;;9.70;3.00;;;16.00;99.90;;;;;;5036162;28;20036;-65
2021/06/13 05:16:52;;;;;;;7.03;2.85;;;15.90;99.90;;;;;;5036011;28;20096;-65
2021/06/13 05:19:18;;;;;;;6.68;2.92;;;15.90;99.90;;;;;;5034568;28;20486;-65
2021/06/13 05:21:43;;;;;;;5.00;2.70;;;15.90;99.90;;;;;;5036005;28;20503;-66
2021/06/13 05:24:09;;;;;;;8.13;2.70;;;16.00;99.90;;;;;;5034517;28;20032;-60
2021/06/13 05:26:36;;;;;;;7.00;2.72;;;16.20;99.90;;;;;;5035805;28;20045;-62
2021/06/13 05:29:03;;;;;;;11.23;3.08;;;16.40;99.90;;;;;;5035581;28;20482;-61
2021/06/13 05:31:29;;;;;;;9.75;3.22;;;16.40;99.90;;;;;;5035564;28;20045;-61
2021/06/13 05:33:54;;;;;;;4.75;2.63;;;16.40;99.90;;;;;;5035753;28;20079;-60
2021/06/13 05:36:21;;;;;;;8.10;2.50;;;16.30;99.90;;;;;;5035664;28;20075;-62
2021/06/13 05:38:46;;;;;;;4.75;2.90;;;16.70;99.90;;;;;;5035724;28;20029;-59
2021/06/13 05:41:13;;;;;;;8.23;3.90;;;16.90;99.90;;;;;;5035772;28;20087;-60
2021/06/13 05:43:41;;;;;;;6.95;2.95;;;16.90;99.90;;;;;;5035751;28;20047;-60
2021/06/13 05:46:08;;;;;;;11.35;2.72;;;17.10;99.90;;;;;;5035348;28;20025;-60
2021/06/13 05:48:34;;;;;;;6.85;2.30;;;17.30;99.90;;;;;;5034269;28;20029;-59
2021/06/13 05:51:02;;;;;;;10.10;2.70;;;17.20;99.90;;;;;;5035119;28;20029;-57
2021/06/13 05:53:28;;;;;;;6.00;2.38;;;17.10;99.90;;;;;;5034793;28;20034;-59
2021/06/13 05:55:54;;;;;;;5.13;2.50;;;17.20;99.90;;;;;;5034718;28;20026;-59
2021/06/13 05:58:20;;;;;;;4.38;2.22;;;17.30;99.90;;;;;;5035170;28;20083;-59
2021/06/13 06:00:46;;;;;;;10.05;2.75;;;17.40;99.90;;;;;;5034354;28;20425;-60
2021/06/13 06:03:12;;;;;;;5.03;2.53;;;17.40;99.90;;;;;;5035070;28;20037;-60
2021/06/13 06:05:38;;;;;;;4.18;2.22;;;17.40;99.90;;;;;;5034965;28;20037;-60
2021/06/13 06:08:05;;;;;;;5.93;2.70;;;17.40;99.90;;;;;;5034999;28;20099;-61
2021/06/13 06:10:33;;;;;;;6.35;2.80;;;17.40;99.90;;;;;;5034867;28;20029;-59
2021/06/13 06:13:01;;;;;;;7.57;2.15;;;17.40;99.90;;;;;;5034789;28;20112;-59
2021/06/13 06:15:28;;;;;;;7.30;2.20;;;17.30;99.90;;;;;;5033681;28;20037;-66
2021/06/13 06:17:55;;;;;;;5.45;2.15;;;17.40;99.90;;;;;;5033272;28;20104;-67
2021/06/13 06:20:27;;;;;;;7.07;2.45;;;17.50;99.90;;;;;;5034323;28;20409;-67
2021/06/13 06:22:53;;;;;;;9.60;2.63;;;17.40;99.90;;;;;;5033761;28;20037;-67
2021/06/13 06:25:20;;;;;;;5.47;2.03;;;17.30;99.90;;;;;;5032762;28;20587;-67
2021/06/13 06:27:50;;;;;;;7.93;2.45;;;17.40;99.90;;;;;;5033216;28;20517;-67
2021/06/13 06:30:17;;;;;;;11.32;2.88;;;17.30;99.90;;;;;;5032719;28;20472;-67
2021/06/13 06:32:43;;;;;;;6.00;2.20;;;17.20;99.90;;;;;;5032994;28;20037;-67
2021/06/13 06:35:12;;;;;;;8.15;2.45;;;17.00;99.90;;;;;;5034428;28;20389;-67
2021/06/13 06:37:39;;;;;;;5.07;2.42;;;17.20;99.90;;;;;;5034322;28;20061;-67
2021/06/13 06:40:08;;;;;;;5.53;2.30;;;17.40;99.90;;;;;;5034424;28;20031;-67
2021/06/13 06:42:34;;;;;;;7.45;2.10;;;17.50;99.90;;;;;;5034061;28;20026;-67
2021/06/13 06:45:00;;;;;;;9.00;2.30;;;17.60;99.90;;;;;;5033058;28;20032;-67
2021/06/13 06:47:26;;;;;;;4.63;2.03;;;17.50;99.90;;;;;;5034339;28;20416;-67
2021/06/13 06:49:52;;;;;;;4.35;2.08;;;17.70;99.90;;;;;;5032532;28;20032;-66
2021/06/13 06:52:18;;;;;;;3.85;2.38;;;17.80;99.90;;;;;;5032591;28;20371;-67
2021/06/13 06:54:44;;;;;;;7.05;2.42;;;17.80;99.90;;;;;;5033787;28;20107;-67
2021/06/13 06:57:11;;;;;;;4.65;2.40;;;17.80;99.90;;;;;;5032948;28;20033;-67
2021/06/13 06:59:37;;;;;;;9.75;2.63;;;17.50;99.90;;;;;;5034055;28;20036;-67
2021/06/13 07:02:04;;;;;;;11.25;5.50;;;17.70;99.90;;;;;;5031974;28;20135;-68
2021/06/13 07:04:30;;;;;;;6.35;2.40;;;17.80;99.90;;;;;;5033783;28;20030;-68
2021/06/13 07:06:56;;;;;;;6.47;2.42;;;17.80;99.90;;;;;;5033502;28;20493;-68
2021/06/13 07:09:23;;;;;;;4.63;2.20;;;17.90;99.90;;;;;;5033382;28;20080;-67
2021/06/13 07:11:48;;;;;;;8.95;2.28;;;18.00;99.90;;;;;;5033410;28;20040;-71
2021/06/13 07:14:14;;;;;;;4.63;1.75;;;18.00;99.90;;;;;;5033495;28;20025;-70
2021/06/13 07:16:40;;;;;;;4.50;2.00;;;18.20;99.90;;;;;;5033374;28;20504;-69
2021/06/13 07:19:06;;;;;;;9.63;2.22;;;18.40;99.90;;;;;;5033251;28;20381;-68
2021/06/13 07:21:33;;;;;;;7.03;2.20;;;18.40;99.60;;;;;;5033532;28;20389;-68
2021/06/13 07:23:59;;;;;;;6.35;2.20;;;18.30;99.90;;;;;;5032185;28;20030;-69
2021/06/13 07:26:25;;;;;;;5.65;1.85;;;18.40;99.20;;;;;;5033603;28;20064;-69
2021/06/13 07:28:51;;;;;;;3.60;1.90;;;18.50;98.80;;;;;;5015533;28;20033;-69
2021/06/13 07:31:16;;;;;;;6.95;2.72;;;18.40;98.40;;;;;;5032908;28;20464;-68
2021/06/13 07:33:42;;;;;;;8.30;3.65;;;18.40;99.00;;;;;;5033222;28;20389;-69
2021/06/13 07:36:08;;;;;;;7.82;2.65;;;18.40;99.30;;;;;;5032948;28;20041;-68
2021/06/13 07:38:34;;;;;;;3.85;2.00;;;18.40;99.70;;;;;;5032135;28;20057;-69
2021/06/13 07:41:00;;;;;;;7.18;2.17;;;18.50;98.50;;;;;;5032736;28;20037;-68
2021/06/13 07:43:26;;;;;;;6.65;2.13;;;18.40;98.40;;;;;;5032921;28;20025;-69
2021/06/13 07:45:52;;;;;;;7.68;2.17;;;18.50;98.70;;;;;;5032854;28;20471;-68
2021/06/13 07:48:18;;;;;;;8.13;2.15;;;18.50;99.20;;;;;;5033172;28;20056;-68
2021/06/13 07:50:45;;;;;;;4.57;2.17;;;18.40;99.50;;;;;;5031609;28;20116;-68
2021/06/13 07:53:11;;;;;;;9.18;2.75;;;18.50;98.80;;;;;;5033009;28;20033;-68
2021/06/13 07:55:38;;;;;;;9.45;2.30;;;18.50;98.30;;;;;;5032560;28;20393;-69
2021/06/13 07:58:04;;;;;;;10.45;2.70;;;18.60;98.50;;;;;;5015054;28;20034;-68
2021/06/13 08:00:30;;;;;;;4.40;1.85;;;18.60;98.80;;;;;;5032995;28;20143;-69
2021/06/13 08:02:56;;;;;;;6.72;2.10;;;18.90;97.60;;;;;;5031387;28;20029;-69
2021/06/13 08:05:26;;;;;;;7.78;2.10;;;19.00;97.30;;;;;;5032825;28;20033;-69
2021/06/13 08:07:59;;;;;;;5.55;1.90;;;19.20;96.30;;;;;;5031249;28;20470;-69
2021/06/13 08:10:28;;;;;;;5.63;1.92;;;19.20;95.20;;;;;;5031383;28;20030;-69
2021/06/13 08:12:55;;;;;;;7.28;2.22;;;19.00;95.20;;;;;;5032130;28;20025;-68
2021/06/13 08:15:22;;;;;;;5.32;1.90;;;18.90;95.90;;;;;;5032476;28;20080;-68
2021/06/13 08:17:48;;;;;;;7.10;2.50;;;19.10;95.80;;;;;;5031245;28;20114;-68
2021/06/13 08:20:15;;;;;;;7.90;2.63;;;19.10;95.70;;;;;;5032469;28;20033;-69
2021/06/13 08:22:41;;;;;;;5.90;2.30;;;19.20;95.50;;;;;;5032163;28;20100;-68
2021/06/13 08:25:10;;;;;;;8.55;3.08;;;19.40;95.10;;;;;;5030705;28;20037;-68
2021/06/13 08:27:36;;;;;;;5.95;2.75;;;19.30;95.30;;;;;;5014546;28;20056;-68
2021/06/13 08:30:03;;;;;;;7.28;2.67;;;19.10;95.10;;;;;;5030909;28;20053;-68
2021/06/13 08:32:29;;;;;;;5.43;2.08;;;19.10;95.60;;;;;;5032136;28;20038;-68
2021/06/13 08:34:55;;;;;;;5.80;2.03;;;19.30;96.20;;;;;;5030124;28;20149;-67
2021/06/13 08:37:21;;;;;;;4.47;2.33;;;19.30;95.50;;;;;;5031763;28;20048;-67
2021/06/13 08:39:47;;;;;;;9.52;3.55;;;19.00;95.40;;;;;;5032533;28;20030;-67
2021/06/13 08:42:13;;;;;;;3.80;2.00;;;19.10;95.80;;;;;;5045929;28;20040;-66
2021/06/13 08:44:39;;;;;;;5.78;1.95;;;19.40;95.00;;;;;;5051748;28;20029;-66
2021/06/13 08:47:14;;;;;;;4.05;1.95;;;19.40;94.90;;;;;;5051158;28;20090;-66
2021/06/13 08:49:41;;;;;;;6.97;1.80;;;19.60;93.90;;;;;;5035144;28;20029;-66
2021/06/13 08:52:09;;;;;;;3.45;1.83;;;19.80;93.50;;;;;;5051714;28;20029;-66
2021/06/13 08:54:35;;;;;;;6.90;2.20;;;19.90;93.90;;;;;;5051832;28;20457;-66
2021/06/13 08:57:01;;;;;;;5.47;1.88;;;20.00;93.00;;;;;;5051577;28;20060;-67
2021/06/13 08:59:27;;;;;;;8.00;1.88;;;20.10;92.50;;;;;;5051928;28;20032;-67
2021/06/13 09:01:53;;;;;;;6.00;1.90;;;20.10;92.30;;;;;;5044845;28;20397;-69
2021/06/13 09:04:19;;;;;;;8.00;2.05;;;20.10;92.10;;;;;;5032077;28;20436;-67
2021/06/13 09:06:44;;;;;;;9.75;2.00;;;20.00;92.60;;;;;;5046238;28;20112;-64
2021/06/13 09:09:29;;;;;;;5.85;1.67;;;19.90;92.10;;;;;;5050058;28;20033;-68
2021/06/13 09:12:01;;;;;;;6.60;1.70;;;19.90;92.10;;;;;;5067045;28;20427;-68
2021/06/13 09:14:28;;;;;;;8.77;2.65;;;19.90;92.30;;;;;;5050343;28;20098;-63
2021/06/13 09:16:56;;;;;;;8.05;2.15;;;20.30;92.30;;;;;;5051694;28;20062;-64
2021/06/13 09:19:22;;;;;;;8.07;2.20;;;20.40;92.20;;;;;;5051540;28;20086;-65
2021/06/13 09:21:49;;;;;;;8.73;3.25;;;20.30;92.00;;;;;;5051757;28;20029;-64
2021/06/13 09:24:27;;;;;;;6.55;1.80;;;20.40;92.50;;;;;;5051525;28;20044;-64
2021/06/13 09:26:55;;;;;;;5.80;1.88;;;20.20;92.20;;;;;;5021944;28;20042;-64
2021/06/13 09:29:22;;;;;;;5.20;2.13;;;20.20;92.90;;;;;;5031660;28;20030;-66
2021/06/13 09:32:07;;;;;;;9.00;3.17;;;20.80;92.10;;;;;;5031705;28;20037;-66
2021/06/13 09:34:32;;;;;;;7.13;2.15;;;21.50;90.60;;;;;;5031489;28;20512;-63
2021/06/13 09:37:05;;;;;;;6.53;2.22;;;21.60;90.60;;;;;;5048081;28;20029;-63
2021/06/13 09:39:32;;;;;;;5.70;2.00;;;21.50;89.80;;;;;;5051670;28;20036;-63
2021/06/13 09:42:09;;;;;;;7.78;1.92;;;21.30;89.60;;;;;;5051149;28;20100;-62
2021/06/13 09:44:36;;;;;;;6.13;2.08;;;21.30;89.20;;;;;;5051394;28;20044;-63
2021/06/13 09:47:03;;;;;;;6.40;1.55;;;21.20;90.20;;;;;;5051294;28;20119;-64
2021/06/13 09:49:45;;;;;;;4.78;1.95;;;21.30;90.10;;;;;;5034542;28;20091;-64
2021/06/13 09:52:10;;;;;;;7.38;2.03;;;21.30;90.00;;;;;;5033988;28;20029;-60
2021/06/13 09:54:36;;;;;;;4.93;1.90;;;21.40;89.10;;;;;;5031864;28;20037;-60
2021/06/13 09:57:03;;;;;;;5.53;1.98;;;21.10;89.60;;;;;;5029967;28;20064;-61
2021/06/13 09:59:33;;;;;;;5.80;1.90;;;21.20;89.50;;;;;;5033181;28;20032;-61
2021/06/13 10:02:03;;;;;;;8.50;2.17;;;21.00;90.40;;;;;;5034572;28;20029;-60
2021/06/13 10:04:40;;;;;;;5.53;1.98;;;21.40;90.40;;;;;;5035231;28;20048;-60
2021/06/13 10:07:18;;;;;;;6.50;1.90;;;21.50;89.10;;;;;;5050944;28;20029;-60
2021/06/13 10:09:50;;;;;;;5.97;2.40;;;21.20;88.10;;;;;;5055106;28;20159;-61
2021/06/13 10:12:16;;;;;;;5.40;1.67;;;21.50;88.30;;;;;;5052908;28;20041;-60
2021/06/13 10:14:43;;;;;;;8.20;2.00;;;21.80;88.60;;;;;;5054782;28;20083;-60
2021/06/13 10:17:10;;;;;;;6.32;1.83;;;21.60;89.00;;;;;;5054611;28;20032;-61
2021/06/13 10:19:47;;;;;;;5.80;1.73;;;21.50;88.80;;;;;;5054937;28;20029;-61
2021/06/13 10:22:16;;;;;;;4.38;2.33;;;21.70;86.60;;;;;;5054698;28;20033;-60
2021/06/13 10:24:47;;;;;;;5.85;2.15;;;21.90;85.40;;;;;;5054941;28;20029;-61
2021/06/13 10:27:18;;;;;;;;;;;22.10;85.20;;;;;;5055219;28;20495;-61
2021/06/13 10:29:48;;;;;;;6.93;2.03;;;22.30;84.40;;;;;;5054454;28;19931;-60
2021/06/13 10:32:17;;;;;;;7.97;2.10;;;22.30;85.30;;;;;;5054613;28;20036;-60
2021/06/13 10:34:43;;;;;;;6.25;1.90;;;22.40;85.10;;;;;;5054350;28;20435;-60
2021/06/13 10:37:13;;;;;;;6.40;1.90;;;22.10;86.60;;;;;;5036387;28;20120;-60
2021/06/13 10:39:39;;;;;;;6.43;1.80;;;22.50;85.20;;;;;;5049877;28;20485;-60
2021/06/13 10:42:14;;;;;;;4.05;1.70;;;22.70;84.10;;;;;;5034938;28;20080;-60
2021/06/13 10:44:58;;;;;;;7.90;1.90;;;21.70;86.30;;;;;;5050884;28;20381;-60
2021/06/13 10:47:26;;;;;;;6.00;2.03;;;22.10;86.10;;;;;;5054149;28;20551;-60
2021/06/13 10:49:54;;;;;;;3.92;1.75;;;22.30;84.50;;;;;;5054521;28;20072;-60
2021/06/13 10:52:25;;;;;;;4.78;1.70;;;22.40;84.20;;;;;;5054103;28;20033;-60
2021/06/13 10:54:51;;;;;;;6.32;1.85;;;22.50;83.80;;;;;;5053947;28;20056;-60
2021/06/13 10:57:17;;;;;;;8.13;2.58;;;22.80;79.30;;;;;;5054219;28;20071;-60
2021/06/13 10:59:51;;;;;;;7.65;1.80;;;23.00;80.80;;;;;;5054363;28;20524;-59
2021/06/13 11:02:21;;;;;;;8.10;2.25;;;23.20;80.40;;;;;;5041621;28;20037;-60
2021/06/13 11:05:01;;;;;;;6.28;1.83;;;23.30;80.10;;;;;;5033997;28;20490;-60
2021/06/13 11:07:27;;;;;;;5.68;1.38;;;22.90;79.30;;;;;;5014466;28;20038;-60
2021/06/13 11:12:58;;;;;;;4.95;1.95;;;23.40;80.20;;;;;;5014290;28;20034;-60
2021/06/13 11:15:31;;;;;;;5.00;2.20;;;23.20;79.90;;;;;;5013588;28;20046;-60
2021/06/13 11:17:59;;;;;;;3.83;1.45;;;23.40;80.50;;;;;;5014280;28;20117;-61
2021/06/13 11:23:07;;;;;;;6.40;1.73;;;23.70;79.00;;;;;;5014215;28;20037;-59
2021/06/13 11:25:38;;;;;;;6.35;2.15;;;23.70;78.60;;;;;;5029335;28;20497;-60
2021/06/13 11:28:29;;;;;;;6.85;2.33;;;23.90;78.20;;;;;;5013846;28;20053;-60
2021/06/13 11:31:09;;;;;;;9.32;1.90;;;23.80;78.40;;;;;;5013629;28;20505;-59
2021/06/13 11:33:44;;;;;;;5.35;1.75;;;23.90;78.20;;;;;;5028211;28;20033;-61
2021/06/13 11:36:16;;;;;;;4.35;2.15;;;23.70;78.30;;;;;;5033063;28;20134;-61
2021/06/13 11:38:54;;;;;;;6.70;1.85;;;23.70;79.40;;;;;;5053354;28;20393;-61
2021/06/13 11:41:31;;;;;;;4.85;1.52;;;23.90;80.50;;;;;;5053427;28;20029;-60
2021/06/13 11:44:00;;;;;;;4.65;1.88;;;24.00;78.20;;;;;;5052089;28;20033;-61
2021/06/13 11:46:33;;;;;;;6.97;1.70;;;24.20;78.50;;;;;;5053299;28;20021;-61
2021/06/13 11:49:01;;;;;;;8.98;1.88;;;24.50;76.80;;;;;;5053202;28;20037;-61
2021/06/13 11:51:27;;;;;;;4.85;1.90;;;24.10;76.60;;;;;;5052860;28;20021;-62
2021/06/13 11:54:06;;;;;;;4.85;1.95;;;24.40;77.60;;;;;;5053009;28;20052;-61
2021/06/13 11:56:44;;;;;;;7.97;2.00;;;24.70;77.30;;;;;;5053094;28;20071;-61
2021/06/13 11:59:23;;;;;;;5.40;1.42;;;24.70;76.00;;;;;;5053021;28;20033;-61
2021/06/13 12:01:57;;;;;;;4.07;1.50;;;25.00;76.30;;;;;;5052930;28;20036;-62
2021/06/13 12:04:26;;;;;;;7.65;1.65;;;25.20;78.50;;;;;;5053036;28;20126;-62
2021/06/13 12:06:53;;;;;;;5.45;1.58;;;25.30;75.00;;;;;;5037019;28;20029;-61
2021/06/13 12:09:22;;;;;;;7.43;1.98;;;25.50;73.80;;;;;;5032674;28;20041;-61
2021/06/13 12:11:55;;;;;;;4.60;1.90;;;25.70;72.70;;;;;;5032965;28;20018;-61
2021/06/13 12:14:40;;;;;;;4.85;2.30;;;25.80;73.30;;;;;;5032931;28;20037;-61
2021/06/13 12:17:15;;;;;;;6.32;1.80;;;25.80;72.70;;;;;;5032678;28;20037;-61
2021/06/13 12:19:46;;;;;;;7.95;1.52;;;25.90;71.10;;;;;;5032867;28;20053;-62
2021/06/13 12:27:39;;;;;;;5.90;1.80;;;25.50;72.30;;;;;;5032515;28;20112;-63
2021/06/13 12:30:09;;;;;;;6.07;1.80;;;25.40;71.90;;;;;;5032319;28;20501;-63
2021/06/13 12:32:36;;;;;;;4.78;1.55;;;25.50;70.30;;;;;;5032475;28;20113;-60
2021/06/13 12:35:14;;;;;;;7.80;1.90;;;25.20;71.20;;;;;;5032823;28;20504;-62
2021/06/13 12:38:00;;;;;;;5.13;1.67;;;25.10;70.70;;;;;;5052342;28;20529;-59
2021/06/13 12:40:26;;;;;;;4.72;1.52;;;25.40;70.60;;;;;;5052383;28;20029;-62
2021/06/13 12:42:52;;;;;;;5.22;1.90;;;25.50;71.20;;;;;;5051078;28;20037;-61
2021/06/13 12:45:20;;;;;;;4.72;1.80;;;25.20;71.60;;;;;;5052111;28;20025;-60
2021/06/13 12:47:54;;;;;;;5.32;1.90;;;25.30;69.80;;;;;;5052447;28;20033;-62
2021/06/13 12:50:35;;;;;;;5.50;1.77;;;25.50;70.40;;;;;;5067779;28;20033;-62
2021/06/13 12:53:04;;;;;;;4.82;1.80;;;25.80;70.10;;;;;;5050089;28;20029;-61
2021/06/13 12:55:45;;;;;;;3.10;1.48;;;25.80;69.20;;;;;;5052198;28;20084;-62
2021/06/13 12:58:21;;;;;;;7.50;1.90;;;25.60;68.50;;;;;;5052307;28;20025;-61
2021/06/13 13:00:48;;;;;;;5.72;1.85;;;25.50;69.90;;;;;;5052002;28;20035;-62
2021/06/13 13:03:23;;;;;;;5.95;1.77;;;25.80;69.60;;;;;;5050676;28;20443;-62
2021/06/13 13:06:07;;;;;;;7.43;2.08;;;25.90;67.20;;;;;;5043547;28;20100;-62
2021/06/13 13:08:47;;;;;;;4.88;1.80;;;26.30;67.70;;;;;;5030911;28;20079;-61
2021/06/13 13:11:31;;;;;;;7.00;1.90;;;26.50;66.50;;;;;;5031987;28;20059;-61